Marysville, CA (95901)

2:22 PM PST on February 27, 2015 (GMT -0800)
Beale Air Force Base | Change Station
CLOSE
Current Station
Airport
Location: Beale AFB,
Elevation: 112 ft
Nearby Weather Stations

Elev 112 ft 39.14 °N, 121.44 °W | Updated 24 minutes ago

Partly Cloudy
Partly Cloudy
66 °F
Feels Like 66 °F
N
9
Wind Variable Wind from SSW

Today
High -- | Low -- °F
--% Chance of Precip.
Yesterday
High -- | Low -- °F
Precip. -- in
6:41 AM 5:56 PM
Waxing Gibbous, 72% visible
Pressure 29.93 in
Visibility 10.0 miles
Clouds Few 4300 ft
Dew Point 46 °F
Humidity 48%
Rainfall 0.00 in
Snow Depth Not available.
UV 4 out of 12
Pollen 8.00 out of 12
Air Quality Not available.
Flu Activity Not available.
METAR KBAB 272158Z AUTO 21008KT 10SM FEW043 19/08 A2970 RMK AO2 SLP133 T01860075 $

More Conditions Fewer Conditions

Pressure 29.93 in
Visibility 10.0 miles
Clouds Few 4300 ft
Dew Point 46 °F
Humidity 48%
Rainfall 0.00 in
Snow Depth Not available.
UV 4 out of 12
Pollen 8.00 out of 12
Air Quality Not available.
Flu Activity Not available.
METAR KBAB 272158Z AUTO 21008KT 10SM FEW043 19/08 A2970 RMK AO2 SLP133 T01860075 $

More Conditions Fewer Conditions

10-Day Weather Forecast

Almanac

Astronomy

Feb. 27, 2015 Rise Set
Actual Time
Civil Twilight
Nautical Twilight
Astronomical Twilight
Moon
Length of Visible Light
Length of Day
Tomorrow will be .
, % of the Moon is Illuminated

Today's Extremes

State Highs State Lows

Community

WunderPhotos

Upload Photos

1,800,853 photos uploaded!

WunderBlogs® & News

Nearby

Air Quality

  Air Quality AQ Index Pollutant
Not available.

Snow Depth

Station Depth Elevation

Earthquake Activity

City Distance Mag. Time & Date
Minimum magnitude displayed is 2.5.

Coastal Water Temperatures

Place Temperature

Nearby Weather Stations